BGJN

Ilulissat Airport

Ilulissat, Greenland
METAR BGJN 130650Z AUTO 36018KT 9999NDV FEW019/// SCT032/// M06/M11 Q1008
Observed Flight Rules
Nov-13 @ 06:50 UTC (38 minutes ago)
Wind Clouds
360° at 18 knots
  • Few at 1,900' AGL
  • Scattered at 3,200' AGL
Temperatures Readings
Current -6°C / 21°F
Dewpoint -11°C / 12°F
Humidity 68%
Altimeter 29.76" Hg
Pressure 1008 hPa
Elevation 25
METAR BGJN 130650Z AUTO 36018KT 9999NDV FEW019/// SCT032/// M06/M11 Q1008
Observed Flight Rules
Nov-13 @ 06:50 UTC
(38 minutes ago)
Wind
360° at 18 knots
Clouds
  • Few at 1,900' AGL
  • Scattered at 3,200' AGL
Temperature Dewpoint
-6°C / 21°F -11°C / 12°F
Humidity Altimeter Pressure
68% 29.76" Hg 1008 hPa